Worley, Idaho
Current Conditions -  °F | °C
As of 12:55 AM on Sunday 23 Nov 2014 (Local Time) from KCOE Reporting Station
Overcast Overcast  
Wind Chill: 27°   Ceiling: 2100
Heat Index: 32°   Visibility: 10mi
Dew Point: 28°   Wind: 5mph
Humidity: 87%   Direction: 200°SSW
Pressure: 30.02"   Gusts: NA
Location:  47.4°N, 116.92°W
Report Text: KCOE 230855Z AUTO 20004KT 10SM OVC021 00/M02 A3002 RMK AO1 52037
Loading
Personal Weather Stations






























Interactive Weather Map New forecast layout! Learn more

10-Day Weather Forecast

Advertisements
Track Severe Weather on mobile